Time;durP1;ratioP1;P1;durP2;ratioP2;P2;SDS_P1;SDS_P2;PMS_P1;PMS_P2;Temp;Humidity;BMP_temperature;BMP_pressure;BME280_temperature;BME280_humidity;BME280_pressure;Samples;Min_cycle;Max_cycle;Signal;HPM_P1;HPM_P2
2022/12/27 00:01:25;;;;;;;6.77;2.63;;;7.10;99.90;;;;;;5116397;28;20486;-54
2022/12/27 00:03:53;;;;;;;1.83;1.73;;;7.00;99.90;;;;;;5116563;28;20798;-54
2022/12/27 00:06:22;;;;;;;2.30;2.07;;;7.00;99.90;;;;;;5116430;28;20454;-54
2022/12/27 00:08:50;;;;;;;2.07;1.90;;;6.90;99.90;;;;;;5116089;28;20928;-54
2022/12/27 00:11:22;;;;;;;2.03;1.87;;;6.80;99.90;;;;;;5116012;28;20550;-54
2022/12/27 00:13:49;;;;;;;2.70;1.97;;;6.80;99.90;;;;;;5116419;28;20513;-55
2022/12/27 00:16:18;;;;;;;2.03;1.73;;;6.90;99.90;;;;;;5115252;28;20859;-54
2022/12/27 00:18:47;;;;;;;1.93;1.60;;;6.80;99.90;;;;;;5115596;28;20469;-54
2022/12/27 00:21:16;;;;;;;2.80;1.90;;;6.70;99.90;;;;;;5115811;28;21069;-54
2022/12/27 00:23:45;;;;;;;3.47;2.63;;;6.80;99.90;;;;;;5115879;28;20447;-54
2022/12/27 00:26:17;;;;;;;2.60;1.90;;;6.70;99.90;;;;;;5115689;28;20963;-54
2022/12/27 00:28:46;;;;;;;2.17;1.80;;;6.50;99.90;;;;;;5116068;28;20434;-54
2022/12/27 00:31:13;;;;;;;2.87;2.20;;;6.50;99.90;;;;;;5115729;28;21000;-54
2022/12/27 00:33:42;;;;;;;2.20;2.00;;;6.50;99.90;;;;;;5115770;28;20447;-54
2022/12/27 00:36:12;;;;;;;2.00;1.90;;;;;;;;;;5115845;28;20451;-55
2022/12/27 00:38:39;;;;;;;2.40;1.90;;;6.40;99.90;;;;;;5115515;28;20480;-54
2022/12/27 00:41:06;;;;;;;3.03;1.93;;;6.30;99.90;;;;;;5115634;28;20469;-54
2022/12/27 00:43:34;;;;;;;5.07;1.87;;;6.30;99.90;;;;;;5115511;28;20496;-54
2022/12/27 00:46:03;;;;;;;2.30;2.10;;;;;;;;;;5115697;28;20446;-54
2022/12/27 00:48:30;;;;;;;3.60;3.07;;;6.30;99.90;;;;;;5115310;28;20877;-54
2022/12/27 00:50:59;;;;;;;3.67;2.00;;;6.20;99.90;;;;;;5115158;28;20953;-54
2022/12/27 00:53:27;;;;;;;3.00;2.20;;;6.30;99.90;;;;;;5115246;28;20457;-54
2022/12/27 00:55:54;;;;;;;4.20;1.80;;;6.20;99.90;;;;;;5115271;28;20933;-54
2022/12/27 00:58:21;;;;;;;3.57;2.10;;;6.20;99.90;;;;;;5115170;28;20474;-55
2022/12/27 01:00:49;;;;;;;5.03;2.30;;;6.20;99.90;;;;;;5115079;28;20809;-54
2022/12/27 01:03:18;;;;;;;6.63;2.37;;;6.10;99.90;;;;;;5114950;28;20480;-54
2022/12/27 01:05:46;;;;;;;2.10;1.93;;;6.10;99.90;;;;;;5115272;28;20474;-54
2022/12/27 01:08:13;;;;;;;2.90;1.80;;;6.10;99.90;;;;;;5115047;28;20454;-55
2022/12/27 01:10:41;;;;;;;5.17;1.90;;;6.10;99.90;;;;;;5115003;28;20451;-55
2022/12/27 01:13:08;;;;;;;2.93;2.33;;;6.10;99.90;;;;;;5114885;28;20447;-55
2022/12/27 01:15:35;;;;;;;3.43;1.90;;;6.10;99.90;;;;;;5115020;28;20447;-54
2022/12/27 01:18:03;;;;;;;3.40;2.27;;;6.10;99.90;;;;;;5114797;28;20434;-55
2022/12/27 01:20:31;;;;;;;1.97;1.77;;;6.10;99.90;;;;;;5114944;28;20462;-54
2022/12/27 01:22:58;;;;;;;4.30;2.30;;;6.20;99.90;;;;;;5114911;28;20485;-54
2022/12/27 01:25:25;;;;;;;2.60;1.73;;;6.00;99.90;;;;;;5114890;28;20546;-55
2022/12/27 01:27:52;;;;;;;2.07;1.90;;;6.10;99.90;;;;;;5114572;28;20458;-54
2022/12/27 01:30:19;;;;;;;3.20;2.93;;;6.00;99.90;;;;;;5114488;28;20473;-55
2022/12/27 01:32:47;;;;;;;2.50;1.97;;;6.00;99.90;;;;;;5114535;28;21000;-54
2022/12/27 01:35:14;;;;;;;2.90;1.80;;;6.00;99.90;;;;;;5114794;28;20450;-54
2022/12/27 01:37:42;;;;;;;2.30;1.80;;;6.00;99.90;;;;;;5114785;28;20450;-55
2022/12/27 01:40:10;;;;;;;2.67;2.47;;;6.00;99.90;;;;;;5114316;28;20463;-55
2022/12/27 01:42:52;;;;;;;2.70;1.97;;;5.90;99.90;;;;;;5114274;28;20475;-54
2022/12/27 01:45:20;;;;;;;2.73;1.90;;;5.90;99.90;;;;;;5114598;28;20419;-55
2022/12/27 01:47:54;;;;;;;2.80;2.17;;;5.90;99.90;;;;;;5114316;28;20442;-54
2022/12/27 01:50:27;;;;;;;2.63;2.10;;;5.80;99.90;;;;;;5114013;28;20973;-54
2022/12/27 01:53:01;;;;;;;3.57;2.00;;;5.80;99.90;;;;;;5114451;28;20447;-55
2022/12/27 01:55:33;;;;;;;2.53;1.60;;;5.70;99.90;;;;;;5114104;28;20441;-55
2022/12/27 01:58:11;;;;;;;6.23;2.10;;;5.60;99.90;;;;;;5114428;28;20433;-55
2022/12/27 02:00:42;;;;;;;2.20;1.80;;;5.50;99.90;;;;;;5114340;28;21047;-55
2022/12/27 02:03:10;;;;;;;2.63;1.70;;;5.50;99.90;;;;;;5114264;28;20494;-54
2022/12/27 02:05:40;;;;;;;2.30;1.97;;;5.50;99.90;;;;;;5114045;28;20478;-55
2022/12/27 02:08:29;;;;;;;2.00;1.80;;;5.50;99.90;;;;;;5114214;28;20454;-54
2022/12/27 02:10:58;;;;;;;2.20;1.70;;;5.50;99.90;;;;;;5114016;28;20477;-54
2022/12/27 02:13:25;;;;;;;2.10;2.00;;;5.50;99.90;;;;;;5114315;28;20533;-55
2022/12/27 02:15:53;;;;;;;9.70;2.30;;;5.50;99.90;;;;;;5114053;28;20427;-55
2022/12/27 02:18:20;;;;;;;1.97;1.70;;;5.50;99.90;;;;;;5113837;28;20427;-55
2022/12/27 02:21:25;;;;;;;2.03;1.87;;;5.50;99.90;;;;;;5114055;28;20463;-55
2022/12/27 02:24:12;;;;;;;1.60;1.50;;;5.40;99.90;;;;;;5113834;28;20462;-54
2022/12/27 02:26:48;;;;;;;2.60;1.60;;;5.30;99.90;;;;;;5113856;28;20466;-54
2022/12/27 02:29:40;;;;;;;4.03;2.03;;;5.30;99.90;;;;;;5114021;28;20782;-55
2022/12/27 02:32:10;;;;;;;4.20;2.10;;;5.20;99.90;;;;;;5113713;28;20453;-55
2022/12/27 02:34:46;;;;;;;5.90;2.60;;;5.20;99.90;;;;;;5113942;28;20446;-55
2022/12/27 02:37:14;;;;;;;1.97;1.87;;;5.10;99.90;;;;;;5114145;28;20458;-55
2022/12/27 02:39:46;;;;;;;5.57;2.10;;;5.10;99.90;;;;;;5113671;28;20473;-55
2022/12/27 02:53:40;;;;;;;2.10;1.90;;;4.90;99.90;;;;;;5117801;28;20402;-55
2022/12/27 02:59:26;;;;;;;6.20;2.07;;;5.00;99.90;;;;;;5092560;28;20555;-55
2022/12/27 03:05:11;;;;;;;3.67;1.73;;;4.80;99.90;;;;;;5117548;28;20819;-54
2022/12/27 03:07:46;;;;;;;2.00;1.80;;;4.80;99.90;;;;;;5117182;28;20453;-54
2022/12/27 03:16:19;;;;;;;1.83;1.73;;;4.70;99.90;;;;;;5117428;28;20893;-54
2022/12/27 03:19:11;;;;;;;2.00;1.80;;;4.60;99.90;;;;;;5117486;28;20597;-54
2022/12/27 03:27:27;;;;;;;2.57;2.10;;;4.60;99.90;;;;;;5117189;28;20544;-55
2022/12/27 03:38:01;;;;;;;2.80;1.80;;;4.50;99.90;;;;;;5116913;28;20406;-54
2022/12/27 03:38:35;;;;;;;3.57;2.77;;;4.60;99.90;;;;;;5117045;28;20451;-55
2022/12/27 03:43:51;;;;;;;6.30;2.50;;;4.60;99.90;;;;;;5116603;28;21057;-55
2022/12/27 03:46:34;;;;;;;5.43;2.27;;;4.60;99.90;;;;;;5116493;28;20775;-54
2022/12/27 03:49:18;;;;;;;1.87;1.77;;;4.70;99.90;;;;;;5116474;28;20431;-55
2022/12/27 03:51:50;;;;;;;4.57;2.27;;;4.60;99.90;;;;;;5116671;28;20427;-55
2022/12/27 03:54:25;;;;;;;3.97;1.90;;;4.60;99.90;;;;;;5116883;28;20445;-55
2022/12/27 03:56:56;;;;;;;2.57;2.37;;;4.60;99.90;;;;;;5116458;28;20488;-55
2022/12/27 03:59:23;;;;;;;2.10;1.93;;;4.60;99.90;;;;;;5116282;28;20504;-55
2022/12/27 04:01:50;;;;;;;2.10;2.00;;;4.50;99.90;;;;;;5116492;28;20428;-55
2022/12/27 04:04:18;;;;;;;3.30;2.00;;;4.50;99.90;;;;;;5116507;28;20453;-55
2022/12/27 04:06:46;;;;;;;1.67;1.57;;;4.40;99.90;;;;;;5116350;28;20442;-55
2022/12/27 04:36:45;;;;;;;2.20;2.03;;;4.20;99.90;;;;;;5115620;28;20425;-54
2022/12/27 04:39:14;;;;;;;2.40;2.17;;;4.20;99.90;;;;;;5115853;28;20430;-55
2022/12/27 04:55:30;;;;;;;2.30;2.10;;;4.40;99.90;;;;;;5115439;28;20406;-55
2022/12/27 04:57:58;;;;;;;2.60;1.80;;;4.40;99.90;;;;;;5115270;28;20848;-55
2022/12/27 05:03:16;;;;;;;2.53;2.20;;;4.30;99.90;;;;;;5114624;28;20458;-54
2022/12/27 05:05:44;;;;;;;2.97;2.23;;;4.30;99.90;;;;;;5115836;28;20445;-55
2022/12/27 05:14:01;;;;;;;2.50;2.30;;;4.30;99.90;;;;;;5114990;28;20457;-55
2022/12/27 05:16:30;;;;;;;5.00;2.60;;;4.30;99.90;;;;;;5115062;28;20423;-55
2022/12/27 05:18:57;;;;;;;2.93;2.63;;;4.20;99.90;;;;;;5115047;28;20456;-54
2022/12/27 05:21:25;;;;;;;4.07;2.53;;;4.20;99.90;;;;;;5114925;28;20463;-54
2022/12/27 05:26:38;;;;;;;2.77;2.50;;;4.10;99.90;;;;;;5114747;28;20541;-54
2022/12/27 05:29:06;;;;;;;2.00;1.90;;;4.10;99.90;;;;;;5114522;28;20491;-54
2022/12/27 05:31:34;;;;;;;2.27;2.00;;;4.00;99.90;;;;;;5114815;28;20446;-54
2022/12/27 05:34:01;;;;;;;3.80;2.23;;;4.10;99.90;;;;;;5114803;28;20443;-54
2022/12/27 05:36:28;;;;;;;2.43;2.23;;;4.10;99.90;;;;;;5114733;28;20450;-54
2022/12/27 05:38:55;;;;;;;2.50;2.40;;;4.00;99.90;;;;;;5115138;28;20451;-54
2022/12/27 05:41:23;;;;;;;3.40;2.57;;;4.00;99.90;;;;;;5114294;28;20474;-54
2022/12/27 05:43:51;;;;;;;2.40;2.20;;;4.00;99.90;;;;;;5114137;28;20490;-54
2022/12/27 05:46:20;;;;;;;2.47;2.30;;;3.90;99.90;;;;;;5114230;28;20446;-54
2022/12/27 05:48:48;;;;;;;4.60;2.60;;;3.90;99.90;;;;;;5114555;28;20451;-54
2022/12/27 05:51:17;;;;;;;5.00;2.40;;;3.90;99.90;;;;;;5114191;28;20456;-55
2022/12/27 05:53:45;;;;;;;2.60;2.40;;;3.90;99.90;;;;;;5114309;28;20442;-54
2022/12/27 05:56:15;;;;;;;2.13;2.00;;;3.80;99.90;;;;;;5114085;28;21024;-54
2022/12/27 05:58:43;;;;;;;2.40;2.20;;;3.90;99.90;;;;;;5114198;28;20438;-54
2022/12/27 06:01:13;;;;;;;2.27;2.07;;;3.80;99.90;;;;;;5113924;28;20471;-54
2022/12/27 06:03:41;;;;;;;3.87;2.50;;;3.90;99.90;;;;;;5114267;28;20482;-54
2022/12/27 06:06:09;;;;;;;6.73;3.00;;;4.00;99.90;;;;;;5113951;28;20455;-54
2022/12/27 06:08:37;;;;;;;3.03;2.80;;;4.00;99.90;;;;;;5114339;28;20458;-54
2022/12/27 06:11:07;;;;;;;2.80;2.30;;;3.90;99.90;;;;;;5114103;28;20459;-54
2022/12/27 06:13:34;;;;;;;2.33;2.10;;;4.00;99.90;;;;;;5114056;28;20798;-54
2022/12/27 06:16:03;;;;;;;4.20;2.50;;;4.00;99.90;;;;;;5114300;28;20447;-55
2022/12/27 06:18:34;;;;;;;2.13;2.03;;;4.00;99.90;;;;;;5114152;28;20446;-55
2022/12/27 06:21:02;;;;;;;3.93;3.23;;;4.00;99.90;;;;;;5113617;28;20486;-55
2022/12/27 06:23:29;;;;;;;5.57;2.43;;;4.00;99.90;;;;;;5113706;28;20481;-55
2022/12/27 06:25:56;;;;;;;4.30;2.83;;;4.00;99.90;;;;;;5113695;28;20450;-55
2022/12/27 06:28:23;;;;;;;2.63;2.43;;;3.90;99.90;;;;;;5113738;28;20442;-54
2022/12/27 06:30:51;;;;;;;2.77;2.53;;;3.90;99.90;;;;;;5113826;28;20462;-55
2022/12/27 06:33:18;;;;;;;2.83;2.00;;;3.90;99.90;;;;;;5114054;28;20446;-55
2022/12/27 06:35:46;;;;;;;3.27;2.97;;;3.90;99.90;;;;;;5113734;28;20443;-54
2022/12/27 06:38:13;;;;;;;3.50;2.20;;;3.80;99.90;;;;;;5114111;28;20454;-54
2022/12/27 06:40:40;;;;;;;3.53;2.67;;;3.80;99.90;;;;;;5113778;28;20466;-54
2022/12/27 06:43:08;;;;;;;2.43;2.33;;;3.80;99.90;;;;;;5113256;28;20976;-54
2022/12/27 06:45:35;;;;;;;2.67;1.97;;;3.90;99.90;;;;;;5113434;28;20812;-55
2022/12/27 06:48:02;;;;;;;8.97;2.20;;;4.00;99.90;;;;;;5113677;28;20451;-54
2022/12/27 06:50:29;;;;;;;2.37;1.97;;;4.10;99.90;;;;;;5113615;28;20472;-55
2022/12/27 06:52:57;;;;;;;3.07;2.43;;;4.10;99.90;;;;;;5113584;28;20446;-55
2022/12/27 06:55:25;;;;;;;2.40;2.20;;;4.10;99.90;;;;;;5113749;28;20447;-55
2022/12/27 06:57:52;;;;;;;3.90;2.43;;;4.10;99.90;;;;;;5113556;28;20944;-55
2022/12/27 07:00:19;;;;;;;5.53;2.80;;;4.10;99.90;;;;;;5113332;28;20814;-55
2022/12/27 07:02:47;;;;;;;5.20;2.80;;;4.00;99.90;;;;;;5113824;28;20479;-54
2022/12/27 07:05:15;;;;;;;2.37;2.17;;;4.00;99.90;;;;;;5113701;28;20446;-54
2022/12/27 07:07:42;;;;;;;3.83;2.17;;;4.00;99.90;;;;;;5113575;28;20463;-54
2022/12/27 07:10:10;;;;;;;3.20;2.17;;;4.00;99.90;;;;;;5113634;28;20488;-54
2022/12/27 07:12:38;;;;;;;3.37;2.33;;;4.00;99.90;;;;;;5113537;28;20456;-55
2022/12/27 07:15:06;;;;;;;4.30;2.50;;;4.10;99.90;;;;;;5113580;28;20442;-54
2022/12/27 07:17:34;;;;;;;5.33;4.07;;;4.00;99.90;;;;;;5113314;28;20427;-55
2022/12/27 07:20:02;;;;;;;4.57;2.80;;;4.00;99.90;;;;;;5113080;28;20473;-55
2022/12/27 07:22:29;;;;;;;3.73;2.43;;;3.90;99.90;;;;;;5113400;28;20561;-55
2022/12/27 07:24:56;;;;;;;3.43;3.07;;;4.00;99.90;;;;;;5113502;28;20482;-55
2022/12/27 07:27:25;;;;;;;3.20;2.33;;;4.00;99.90;;;;;;5115900;28;20817;-55
2022/12/27 07:29:52;;;;;;;2.23;1.83;;;3.90;99.90;;;;;;5116881;28;20538;-55
2022/12/27 07:32:19;;;;;;;1.73;1.63;;;4.00;99.90;;;;;;5116725;28;20448;-55
2022/12/27 07:34:46;;;;;;;3.87;2.77;;;4.00;99.90;;;;;;5116765;28;20525;-55
2022/12/27 07:37:13;;;;;;;8.60;2.90;;;4.00;99.90;;;;;;5116999;28;20458;-55
2022/12/27 07:39:40;;;;;;;2.00;1.90;;;4.00;99.90;;;;;;5116989;28;20825;-55
2022/12/27 07:42:07;;;;;;;2.53;2.40;;;4.00;99.90;;;;;;5116591;28;20561;-55
2022/12/27 07:44:36;;;;;;;2.67;2.00;;;4.10;99.90;;;;;;5116806;28;20454;-55
2022/12/27 07:47:03;;;;;;;4.97;2.57;;;4.10;99.90;;;;;;5116818;28;20439;-55
2022/12/27 07:49:34;;;;;;;10.53;3.47;;;4.20;99.90;;;;;;5116469;28;20496;-55
2022/12/27 07:52:01;;;;;;;2.77;2.37;;;4.20;99.90;;;;;;5116332;28;20443;-56
2022/12/27 07:54:28;;;;;;;2.93;2.43;;;4.20;99.90;;;;;;5116823;28;20881;-55
2022/12/27 07:56:55;;;;;;;5.60;2.70;;;4.30;99.90;;;;;;5116303;28;20538;-55
2022/12/27 07:59:22;;;;;;;2.80;2.27;;;4.30;99.90;;;;;;5116555;28;20456;-55
2022/12/27 08:02:06;;;;;;;2.83;1.90;;;4.20;99.90;;;;;;5116182;28;20530;-55
2022/12/27 08:04:36;;;;;;;2.60;2.20;;;4.30;99.90;;;;;;5116581;28;20463;-55
2022/12/27 08:07:06;;;;;;;4.10;2.60;;;4.40;99.90;;;;;;5116342;28;20929;-55
2022/12/27 08:09:37;;;;;;;2.67;1.80;;;4.40;99.90;;;;;;5116407;28;20466;-54
2022/12/27 08:12:05;;;;;;;3.10;2.60;;;4.50;99.90;;;;;;5116122;28;20408;-54
2022/12/27 08:14:32;;;;;;;2.10;1.90;;;4.60;99.90;;;;;;5115996;28;20798;-55
2022/12/27 08:17:05;;;;;;;3.93;2.63;;;4.60;99.90;;;;;;5115915;28;20924;-55
2022/12/27 08:19:32;;;;;;;2.20;2.00;;;4.70;99.90;;;;;;5115904;28;20583;-55
2022/12/27 08:21:59;;;;;;;3.07;2.70;;;4.80;99.90;;;;;;5116176;28;20454;-55
2022/12/27 08:24:27;;;;;;;5.47;2.27;;;4.80;99.90;;;;;;5115959;28;20497;-55
2022/12/27 08:26:54;;;;;;;2.60;2.40;;;4.80;99.90;;;;;;5115753;28;20935;-55
2022/12/27 08:29:21;;;;;;;2.93;2.13;;;4.90;99.90;;;;;;5115825;28;20465;-55
2022/12/27 08:31:48;;;;;;;5.87;2.30;;;4.90;99.90;;;;;;5115539;28;20457;-55
2022/12/27 08:34:17;;;;;;;2.70;2.50;;;5.00;99.90;;;;;;5115731;28;20967;-55
2022/12/27 08:36:44;;;;;;;2.90;2.60;;;5.00;99.90;;;;;;5115467;28;20447;-54
2022/12/27 08:39:11;;;;;;;2.57;2.27;;;5.10;99.90;;;;;;5114415;28;20960;-55
2022/12/27 08:41:39;;;;;;;3.27;2.40;;;5.20;99.90;;;;;;5115258;28;20947;-55
2022/12/27 08:44:06;;;;;;;2.43;2.23;;;5.20;99.90;;;;;;5115349;28;20569;-55
2022/12/27 08:46:33;;;;;;;5.03;2.40;;;5.30;99.90;;;;;;5115631;28;20442;-55
2022/12/27 08:49:00;;;;;;;2.70;2.50;;;5.30;99.90;;;;;;5115383;28;20478;-55
2022/12/27 08:51:29;;;;;;;2.77;2.07;;;5.30;99.90;;;;;;5115030;28;20977;-55
2022/12/27 08:53:56;;;;;;;4.33;2.80;;;5.20;99.90;;;;;;5115274;28;20441;-55
2022/12/27 08:56:23;;;;;;;6.23;1.90;;;5.30;99.90;;;;;;5115165;28;20451;-55
2022/12/27 08:58:51;;;;;;;5.33;2.40;;;5.40;99.90;;;;;;5115046;28;20446;-55
2022/12/27 09:01:18;;;;;;;6.60;2.90;;;5.30;99.90;;;;;;5115313;28;20494;-55
2022/12/27 09:03:45;;;;;;;5.60;2.40;;;5.40;99.90;;;;;;5115185;28;20490;-55
2022/12/27 09:06:14;;;;;;;2.50;2.30;;;5.40;99.90;;;;;;5114923;28;20447;-55
2022/12/27 09:08:44;;;;;;;2.77;2.20;;;5.50;99.90;;;;;;5115671;28;20450;-55
2022/12/27 09:11:13;;;;;;;2.50;2.00;;;5.60;99.90;;;;;;5114767;28;20463;-54
2022/12/27 09:13:41;;;;;;;1.93;1.77;;;5.60;99.90;;;;;;5114994;28;20439;-55
2022/12/27 09:16:10;;;;;;;2.83;2.53;;;5.70;99.90;;;;;;5114913;28;20550;-55
2022/12/27 09:18:37;;;;;;;3.27;2.10;;;5.80;99.90;;;;;;5115057;28;20442;-55
2022/12/27 09:21:09;;;;;;;3.40;2.30;;;5.90;99.90;;;;;;5114987;28;20480;-55
2022/12/27 09:23:37;;;;;;;6.40;3.03;;;5.90;99.90;;;;;;5114873;28;20446;-55
2022/12/27 09:26:07;;;;;;;5.30;2.10;;;5.90;99.90;;;;;;5114806;28;20443;-55
2022/12/27 09:28:35;;;;;;;2.30;2.10;;;6.00;99.90;;;;;;5115019;28;20442;-55
2022/12/27 09:31:03;;;;;;;3.13;2.40;;;6.10;99.90;;;;;;5114494;28;20446;-55
2022/12/27 09:33:30;;;;;;;4.80;2.07;;;6.10;99.90;;;;;;5114554;28;20951;-55
2022/12/27 09:36:05;;;;;;;3.33;2.30;;;6.10;99.90;;;;;;5114720;28;20480;-55
2022/12/27 09:38:32;;;;;;;2.50;2.30;;;6.10;99.90;;;;;;5114844;28;20486;-55
2022/12/27 09:41:01;;;;;;;2.60;1.93;;;6.30;99.90;;;;;;5114164;28;20475;-55
2022/12/27 09:43:40;;;;;;;2.13;1.93;;;6.30;99.90;;;;;;5114053;28;20907;-55
2022/12/27 09:46:16;;;;;;;4.33;2.73;;;6.40;99.90;;;;;;5114221;28;20912;-55
2022/12/27 09:48:43;;;;;;;2.53;2.33;;;6.40;99.90;;;;;;5114166;28;20426;-57
2022/12/27 09:51:18;;;;;;;7.20;2.20;;;6.50;99.90;;;;;;5114200;28;20466;-55
2022/12/27 09:53:50;;;;;;;2.87;1.87;;;6.50;99.90;;;;;;5114526;28;20430;-55
2022/12/27 09:56:23;;;;;;;2.87;2.47;;;6.50;99.90;;;;;;5114141;28;20484;-55
2022/12/27 09:58:54;;;;;;;3.87;2.50;;;6.60;99.90;;;;;;5113891;28;20430;-56
2022/12/27 10:01:29;;;;;;;3.10;2.40;;;6.70;99.90;;;;;;5113902;28;21059;-55
2022/12/27 10:03:56;;;;;;;6.63;1.93;;;6.70;99.90;;;;;;5114223;28;20473;-55
2022/12/27 10:06:42;;;;;;;3.93;3.20;;;6.80;99.90;;;;;;5113908;28;20446;-56
2022/12/27 10:09:26;;;;;;;3.73;2.40;;;6.80;99.90;;;;;;5114107;28;20433;-55
2022/12/27 10:12:00;;;;;;;5.73;2.73;;;6.90;99.90;;;;;;5114109;28;20432;-55
2022/12/27 10:14:47;;;;;;;2.37;2.10;;;6.90;99.90;;;;;;5114326;28;20770;-54
2022/12/27 10:17:28;;;;;;;4.47;2.17;;;6.90;99.90;;;;;;5113890;28;20430;-55
2022/12/27 10:20:08;;;;;;;2.43;2.23;;;7.00;99.90;;;;;;5113679;28;20841;-56
2022/12/27 10:22:38;;;;;;;5.50;2.77;;;7.20;99.90;;;;;;5113767;28;20761;-55
2022/12/27 10:25:11;;;;;;;3.47;2.03;;;7.20;99.90;;;;;;5113670;28;20478;-55
2022/12/27 10:27:39;;;;;;;6.40;3.53;;;7.30;99.90;;;;;;5113932;28;20431;-55
2022/12/27 10:30:15;;;;;;;2.63;2.43;;;7.40;99.90;;;;;;5113604;28;20523;-56
2022/12/27 10:32:42;;;;;;;2.80;2.60;;;7.50;99.90;;;;;;5113906;28;20437;-55
2022/12/27 10:35:15;;;;;;;3.50;2.30;;;7.50;99.90;;;;;;5113676;28;20443;-55
2022/12/27 10:37:43;;;;;;;2.40;2.20;;;7.60;99.90;;;;;;5114062;28;20557;-56
2022/12/27 10:40:16;;;;;;;3.43;2.30;;;7.90;99.90;;;;;;5113955;28;20471;-56
2022/12/27 10:42:47;;;;;;;2.23;2.00;;;8.40;99.90;;;;;;5113537;28;20559;-55
2022/12/27 10:45:32;;;;;;;3.47;3.17;;;9.50;99.90;;;;;;5114022;28;20972;-55
2022/12/27 10:48:16;;;;;;;3.50;2.30;;;10.00;99.90;;;;;;5114033;28;20480;-55
2022/12/27 10:50:56;;;;;;;3.20;2.43;;;10.50;99.90;;;;;;5113692;28;20470;-56
2022/12/27 10:53:31;;;;;;;5.00;2.10;;;11.40;99.90;;;;;;5113800;28;20800;-55
2022/12/27 10:56:12;;;;;;;4.10;2.30;;;12.00;99.90;;;;;;5113957;28;20430;-55
2022/12/27 10:58:43;;;;;;;3.70;2.17;;;13.00;99.90;;;;;;5113484;28;20426;-57
2022/12/27 11:01:21;;;;;;;6.90;2.40;;;12.90;99.90;;;;;;5114135;28;20976;-56
2022/12/27 11:03:48;;;;;;;2.97;2.00;;;13.10;99.90;;;;;;5117471;28;20889;-56
2022/12/27 11:06:24;;;;;;;2.53;2.07;;;13.10;99.90;;;;;;5117129;28;20987;-55
2022/12/27 11:08:52;;;;;;;3.67;2.20;;;13.50;99.90;;;;;;5117769;28;20454;-55
2022/12/27 11:11:22;;;;;;;4.73;2.80;;;13.80;99.80;;;;;;5117400;28;20990;-56
2022/12/27 11:13:50;;;;;;;4.13;2.50;;;13.60;99.10;;;;;;5117385;28;20448;-56
2022/12/27 11:16:27;;;;;;;3.20;2.10;;;13.80;99.50;;;;;;5117120;28;20801;-56
2022/12/27 11:18:58;;;;;;;3.23;2.40;;;13.70;99.90;;;;;;5117131;28;20491;-56
2022/12/27 11:21:26;;;;;;;4.70;2.90;;;13.70;99.40;;;;;;5117209;28;20462;-55
2022/12/27 11:23:58;;;;;;;3.50;1.83;;;13.50;99.10;;;;;;5117636;28;20507;-56
2022/12/27 11:26:29;;;;;;;4.30;1.93;;;13.20;99.90;;;;;;5117237;28;20466;-55
2022/12/27 11:28:59;;;;;;;2.53;2.00;;;12.80;98.80;;;;;;5117295;28;20433;-54
2022/12/27 11:31:36;;;;;;;3.10;1.70;;;12.00;99.90;;;;;;5117223;28;20462;-56
2022/12/27 11:34:07;;;;;;;6.37;2.47;;;11.40;99.90;;;;;;5116661;28;20433;-56
2022/12/27 11:36:39;;;;;;;2.23;1.77;;;11.10;99.90;;;;;;5117047;28;20423;-54
2022/12/27 11:39:08;;;;;;;4.00;2.03;;;10.70;99.90;;;;;;5117110;28;20941;-54
2022/12/27 11:41:44;;;;;;;3.63;2.07;;;10.40;99.90;;;;;;5116860;28;20533;-54
2022/12/27 11:44:18;;;;;;;2.40;2.20;;;10.30;99.90;;;;;;5116519;28;20918;-54
2022/12/27 11:46:52;;;;;;;2.93;2.10;;;10.00;99.90;;;;;;5117025;28;20427;-54
2022/12/27 11:49:22;;;;;;;2.30;1.80;;;9.90;99.90;;;;;;5116831;28;20517;-55
2022/12/27 11:52:12;;;;;;;4.47;2.13;;;9.50;99.90;;;;;;5116980;28;20454;-54
2022/12/27 11:54:59;;;;;;;5.50;2.10;;;9.60;99.90;;;;;;5103989;28;20465;-54
2022/12/27 11:57:43;;;;;;;4.93;2.80;;;9.60;99.90;;;;;;5102944;28;20816;-55
2022/12/27 12:00:16;;;;;;;2.03;1.80;;;9.70;99.90;;;;;;5116752;28;20458;-54
2022/12/27 12:03:20;;;;;;;4.13;1.80;;;9.60;99.90;;;;;;5116142;28;20434;-54
2022/12/27 12:06:02;;;;;;;7.53;2.00;;;9.40;99.90;;;;;;5116373;28;20470;-55
2022/12/27 12:09:02;;;;;;;4.50;1.97;;;9.20;99.90;;;;;;5116600;28;20486;-55
2022/12/27 12:11:45;;;;;;;2.50;2.10;;;9.30;99.90;;;;;;5116034;28;20545;-54
2022/12/27 12:14:46;;;;;;;7.13;2.33;;;9.00;99.90;;;;;;5116020;28;20430;-55
2022/12/27 12:17:34;;;;;;;3.60;1.80;;;9.20;99.90;;;;;;5115521;28;20959;-54
2022/12/27 12:20:22;;;;;;;3.40;1.90;;;9.60;99.90;;;;;;5115913;28;20473;-55
2022/12/27 12:23:05;;;;;;;2.77;1.90;;;9.50;99.90;;;;;;5099969;28;20429;-54
2022/12/27 12:26:00;;;;;;;4.23;3.30;;;9.30;99.90;;;;;;5115777;28;20469;-55
2022/12/27 12:29:14;;;;;;;2.40;1.90;;;9.20;99.90;;;;;;5115961;28;20414;-54
2022/12/27 12:32:03;;;;;;;2.97;2.30;;;9.20;99.90;;;;;;5053051;28;20473;-54
2022/12/27 12:34:48;;;;;;;2.87;2.30;;;9.30;99.90;;;;;;5107988;28;20451;-55
2022/12/27 12:37:30;;;;;;;5.97;1.90;;;9.00;99.90;;;;;;5115970;28;20450;-54
2022/12/27 12:40:16;;;;;;;2.60;2.03;;;8.90;99.90;;;;;;5115580;28;20976;-55
2022/12/27 12:42:54;;;;;;;3.20;1.87;;;8.90;99.90;;;;;;5115260;28;20480;-55
2022/12/27 12:45:38;;;;;;;3.60;2.30;;;8.80;99.90;;;;;;5115254;28;20467;-55
2022/12/27 12:48:22;;;;;;;3.27;2.20;;;8.80;99.90;;;;;;5115753;28;20768;-55
2022/12/27 12:51:28;;;;;;;4.40;2.43;;;8.80;99.90;;;;;;5115615;28;20884;-56
2022/12/27 12:54:10;;;;;;;2.60;2.40;;;8.80;99.90;;;;;;5115262;28;20442;-55
2022/12/27 12:56:53;;;;;;;3.70;1.93;;;9.30;99.90;;;;;;5116007;28;20511;-55
2022/12/27 12:59:48;;;;;;;5.20;2.07;;;9.40;99.90;;;;;;5115148;28;20505;-55
2022/12/27 13:02:34;;;;;;;4.63;2.50;;;9.40;99.90;;;;;;5114740;28;20450;-55
2022/12/27 13:05:12;;;;;;;4.80;1.97;;;9.60;99.90;;;;;;5115313;28;20489;-55
2022/12/27 13:08:05;;;;;;;4.83;2.57;;;9.70;99.90;;;;;;5115148;28;20909;-55
2022/12/27 13:11:03;;;;;;;4.00;2.70;;;9.60;99.90;;;;;;5111784;28;20470;-55
2022/12/27 13:13:39;;;;;;;2.87;2.00;;;9.60;99.90;;;;;;5114991;28;20423;-55
2022/12/27 13:16:18;;;;;;;5.60;2.30;;;9.50;99.90;;;;;;5114995;28;20437;-55
2022/12/27 13:18:56;;;;;;;4.73;2.33;;;9.60;99.90;;;;;;5115214;28;20423;-55
2022/12/27 13:21:38;;;;;;;3.50;2.10;;;9.90;99.90;;;;;;5114961;28;20833;-55
2022/12/27 13:24:22;;;;;;;7.53;2.07;;;10.00;99.90;;;;;;5114102;28;20447;-55
2022/12/27 13:26:57;;;;;;;4.17;1.97;;;9.90;99.90;;;;;;5114744;28;20505;-55
2022/12/27 13:29:55;;;;;;;1.87;1.77;;;10.00;99.90;;;;;;5114590;28;20434;-55
2022/12/27 13:32:35;;;;;;;4.23;2.77;;;10.00;99.90;;;;;;5069299;28;20450;-55
2022/12/27 13:35:17;;;;;;;4.60;2.60;;;9.90;99.90;;;;;;5114548;28;20416;-55
2022/12/27 13:37:56;;;;;;;2.07;1.87;;;9.70;99.90;;;;;;5114870;28;20464;-55
2022/12/27 13:40:38;;;;;;;3.63;2.90;;;9.60;99.90;;;;;;5114680;28;20468;-55
2022/12/27 13:43:36;;;;;;;3.50;2.00;;;9.50;99.90;;;;;;5113829;28;20478;-55
2022/12/27 13:46:24;;;;;;;2.43;2.20;;;9.50;99.90;;;;;;5114107;28;20471;-55
2022/12/27 13:49:07;;;;;;;3.17;2.27;;;9.30;99.90;;;;;;5114334;28;20821;-55
2022/12/27 13:51:42;;;;;;;4.10;2.10;;;9.40;99.90;;;;;;5114376;28;20415;-55
2022/12/27 13:54:42;;;;;;;5.33;2.20;;;9.30;99.90;;;;;;5114072;28;20430;-55
2022/12/27 13:57:30;;;;;;;6.83;2.10;;;9.30;99.90;;;;;;5114192;28;20429;-55
2022/12/27 14:00:07;;;;;;;2.23;1.70;;;9.10;99.90;;;;;;5114227;28;20463;-55
2022/12/27 14:03:25;;;;;;;6.20;2.30;;;8.80;99.90;;;;;;5113896;28;20426;-56
2022/12/27 14:06:14;;;;;;;3.30;1.97;;;8.80;99.90;;;;;;5113781;28;20546;-55
2022/12/27 14:08:57;;;;;;;4.43;1.80;;;8.70;99.90;;;;;;5114539;28;20486;-55
2022/12/27 14:11:37;;;;;;;2.47;2.27;;;8.80;99.90;;;;;;5114207;28;20490;-55
2022/12/27 14:14:05;;;;;;;2.77;2.20;;;8.80;99.90;;;;;;5114076;28;20430;-55
2022/12/27 14:16:48;;;;;;;4.87;3.03;;;8.70;99.90;;;;;;5113887;28;20786;-55
2022/12/27 14:19:39;;;;;;;3.10;2.30;;;8.70;99.90;;;;;;5113850;28;20431;-55
2022/12/27 14:22:35;;;;;;;2.73;2.20;;;8.70;99.90;;;;;;5114144;28;20433;-55
2022/12/27 14:25:46;;;;;;;2.63;1.70;;;8.70;99.90;;;;;;5096678;28;20806;-55
2022/12/27 14:29:19;;;;;;;3.07;1.97;;;8.70;99.90;;;;;;5113739;28;20427;-55
2022/12/27 14:32:08;;;;;;;7.73;2.17;;;8.50;99.90;;;;;;4991818;28;20451;-55
2022/12/27 14:35:03;;;;;;;3.10;2.10;;;8.50;99.90;;;;;;4991854;28;20432;-55
2022/12/27 14:37:55;;;;;;;2.17;1.90;;;8.50;99.90;;;;;;5103197;28;20476;-55
2022/12/27 14:40:54;;;;;;;2.63;1.90;;;8.40;99.90;;;;;;5117840;28;20541;-55
2022/12/27 14:43:58;;;;;;;3.83;3.53;;;8.40;99.90;;;;;;5101620;28;20482;-55
2022/12/27 14:46:55;;;;;;;5.57;2.40;;;8.40;99.90;;;;;;5117974;28;20573;-55
2022/12/27 14:49:57;;;;;;;2.17;1.97;;;8.40;99.90;;;;;;5117559;28;20849;-55
2022/12/27 14:52:56;;;;;;;5.93;1.90;;;8.40;99.90;;;;;;5086171;28;20441;-55
2022/12/27 14:55:40;;;;;;;5.10;3.23;;;8.40;99.90;;;;;;5117791;28;20526;-55
2022/12/27 14:58:25;;;;;;;3.50;2.40;;;8.30;99.90;;;;;;5117814;28;20427;-55
2022/12/27 15:01:09;;;;;;;2.10;2.00;;;8.20;99.90;;;;;;5117919;28;20481;-55
2022/12/27 15:04:09;;;;;;;6.00;2.00;;;8.20;99.90;;;;;;5117635;28;20431;-56
2022/12/27 15:06:56;;;;;;;3.63;2.10;;;8.20;99.90;;;;;;5117620;28;20471;-56